Weather reports worldwide

Advertisment
Isola Di Salina, Italy (16415): temperature & dewpoint: 13.06.2018 01:00:00 - 19.06.2018 01:00:00 (CEST)Isola Di Salina, Italy (16415): wind speed: 13.06.2018 01:00:00 - 19.06.2018 01:00:00 (CEST)Isola Di Salina, Italy (16415): wind direction: 13.06.2018 01:00:00 - 19.06.2018 01:00:00 (CEST)Isola Di Salina, Italy (16415): reduced air pressure: 13.06.2018 01:00:00 - 19.06.2018 01:00:00 (CEST)Isola Di Salina, Italy (16415): precipitation: 13.06.2018 01:00:00 - 19.06.2018 01:00:00 (CEST)
Date & Time tt [°C] td [°C] ff [km/h] ff [kn] dd ppp [hPa] rr [mm]
19.06.2018 01:00:00 - - - - - - -
19.06.2018 00:00:00 20,4 19,3 8 4 WNW 1013,8 -
18.06.2018 23:00:00 20,6 19,7 9 5 W 1013,9 -
18.06.2018 22:00:00 20,6 19,4 8 4 W 1013,7 -
18.06.2018 21:00:00 21,3 20,2 5 3 WNW 1013,1 -
18.06.2018 20:00:00 21,8 20,7 13 7 NW 1013,0 0,0
18.06.2018 19:00:00 22,2 20,8 16 9 NW 1012,7 -
18.06.2018 18:00:00 22,7 21,3 22 12 NW 1012,5 -
18.06.2018 17:00:00 23,2 21,6 21 11 NW 1012,3 -
18.06.2018 16:00:00 23,7 22,1 18 10 NW 1012,6 -
18.06.2018 15:00:00 24,0 22,2 21 11 NW 1012,8 -
18.06.2018 14:00:00 23,5 22,1 16 9 NW 1013,0 0,0
18.06.2018 13:00:00 24,2 22,6 21 11 NW 1013,4 -
18.06.2018 12:00:00 24,0 22,4 18 10 NW 1013,4 -
18.06.2018 11:00:00 23,2 21,4 18 10 NW 1013,0 -
18.06.2018 10:00:00 22,8 21,4 18 10 NW 1013,1 -
18.06.2018 09:00:00 22,4 21,2 18 10 NW 1013,3 -
18.06.2018 08:00:00 21,7 20,6 15 8 WNW 1013,1 0,0
18.06.2018 07:00:00 20,1 19,2 13 7 W 1012,9 -
18.06.2018 06:00:00 20,3 19,6 15 8 WNW 1013,1 -
18.06.2018 05:00:00 20,3 19,6 15 8 WNW 1012,9 -
18.06.2018 04:00:00 20,0 19,3 11 6 W 1012,9 -
18.06.2018 03:00:00 19,9 19,2 11 6 W 1013,1 -
18.06.2018 02:00:00 20,0 19,3 8 4 W 1013,5 0,0
18.06.2018 01:00:00 20,2 19,3 5 3 W 1014,0 -
18.06.2018 00:00:00 20,5 19,6 5 3 W 1014,3 -
17.06.2018 23:00:00 20,7 19,5 9 5 W 1014,4 -
17.06.2018 22:00:00 21,0 20,1 15 8 WNW 1014,3 -
17.06.2018 21:00:00 21,0 20,1 16 9 WNW 1013,9 -
17.06.2018 20:00:00 21,4 20,3 22 12 WNW 1013,4 0,0
17.06.2018 19:00:00 21,9 20,5 26 14 WNW 1013,1 -
17.06.2018 18:00:00 22,6 21,0 24 13 NW 1013,1 -
17.06.2018 17:00:00 23,0 21,2 24 13 NW 1013,6 -
17.06.2018 16:00:00 23,2 21,6 22 12 NW 1014,0 -
17.06.2018 15:00:00 23,4 21,6 21 11 NW 1014,0 -
17.06.2018 14:00:00 23,5 21,7 21 11 NW 1014,0 0,0
17.06.2018 13:00:00 24,1 22,3 15 8 NW 1014,1 -
17.06.2018 12:00:00 24,0 22,4 15 8 NW 1013,8 -
17.06.2018 11:00:00 23,2 21,8 18 10 NW 1013,6 -
17.06.2018 10:00:00 22,9 21,7 15 8 NW 1013,3 -
17.06.2018 09:00:00 22,3 21,1 13 7 NW 1013,0 -
17.06.2018 08:00:00 21,4 21,0 9 5 WNW 1012,7 -
17.06.2018 07:00:00 19,2 18,7 8 4 W 1012,5 -
17.06.2018 06:00:00 19,3 18,9 8 4 W 1012,4 -
17.06.2018 05:00:00 19,4 19,0 9 5 W 1012,1 -
17.06.2018 04:00:00 19,0 18,5 9 5 W 1012,1 -
17.06.2018 03:00:00 19,0 18,3 9 5 W 1012,4 -
17.06.2018 02:00:00 19,1 18,4 11 6 W 1012,5 -
17.06.2018 01:00:00 19,5 18,8 8 4 W 1012,8 -
17.06.2018 00:00:00 19,9 18,5 15 8 W 1012,8 -
16.06.2018 23:00:00 20,4 18,8 8 4 W 1012,6 -
16.06.2018 22:00:00 20,6 18,8 8 4 W 1012,3 -
16.06.2018 21:00:00 21,0 19,2 11 6 WNW 1011,5 -
16.06.2018 20:00:00 21,6 19,6 15 8 NW 1011,0 0,0
16.06.2018 19:00:00 22,5 19,2 15 8 NW 1010,9 -
16.06.2018 18:00:00 23,2 20,3 15 8 NW 1010,3 -
16.06.2018 17:00:00 23,8 21,1 15 8 NW 1010,4 -
16.06.2018 16:00:00 23,5 20,6 21 11 NW 1010,5 -
16.06.2018 15:00:00 24,0 22,0 18 10 NW 1010,7 -
16.06.2018 14:00:00 23,9 20,2 18 10 NW 1010,5 0,0
16.06.2018 13:00:00 23,9 19,3 21 11 NW 1010,1 -
16.06.2018 12:00:00 24,0 18,6 18 10 WNW 1010,1 -
16.06.2018 11:00:00 23,5 20,2 18 10 WNW 1010,1 -
16.06.2018 10:00:00 23,3 20,8 8 4 WSW 1010,0 -
16.06.2018 09:00:00 22,3 20,5 15 8 NW 1010,1 -
16.06.2018 08:00:00 21,4 19,6 15 8 NW 1009,7 0,0
16.06.2018 07:00:00 20,4 19,0 18 10 WNW 1009,4 -
16.06.2018 06:00:00 19,7 18,5 15 8 WNW 1009,2 -
16.06.2018 05:00:00 19,9 18,5 21 11 WNW 1008,9 -
16.06.2018 04:00:00 20,1 19,0 22 12 WNW 1009,1 -
16.06.2018 03:00:00 20,4 19,5 21 11 NW 1009,2 -
16.06.2018 02:00:00 20,1 19,0 16 9 WNW 1009,6 0,0
16.06.2018 01:00:00 20,3 19,2 15 8 WNW 1009,8 -
16.06.2018 00:00:00 20,6 19,9 15 8 WNW 1009,9 -
15.06.2018 23:00:00 20,6 19,7 13 7 WNW 1009,5 -
15.06.2018 22:00:00 20,8 20,1 15 8 WNW 1009,5 -
15.06.2018 21:00:00 21,0 20,1 18 10 WNW 1009,0 -
15.06.2018 20:00:00 21,4 20,2 21 11 NW 1008,6 -
15.06.2018 19:00:00 22,1 20,5 21 11 NW 1008,3 -
15.06.2018 18:00:00 22,6 21,0 21 11 NW 1007,9 -
15.06.2018 17:00:00 22,8 20,5 22 12 NW 1008,0 -
15.06.2018 16:00:00 23,7 19,8 16 9 NW 1008,1 -
15.06.2018 15:00:00 23,3 18,3 21 11 NNW 1008,2 -
15.06.2018 14:00:00 22,9 19,4 24 13 NNW 1007,9 -
15.06.2018 13:00:00 22,3 20,0 26 14 NNW 1007,9 -
15.06.2018 12:00:00 21,5 19,9 24 13 NW 1007,5 -
15.06.2018 11:00:00 19,7 18,6 18 10 NW 1007,1 -
15.06.2018 10:00:00 21,9 20,1 21 11 NNW 1006,6 -
15.06.2018 09:00:00 20,4 19,0 24 13 NNW 1006,6 -
15.06.2018 08:00:00 19,5 18,3 16 9 NNW 1006,2 0,0
15.06.2018 07:00:00 19,2 18,3 13 7 WNW 1006,1 -
15.06.2018 06:00:00 18,4 17,4 13 7 WNW 1006,1 -
15.06.2018 05:00:00 18,4 17,4 8 4 WNW 1005,8 -
15.06.2018 04:00:00 18,1 17,1 9 5 WNW 1005,8 -
15.06.2018 03:00:00 17,9 16,7 8 4 WNW 1006,1 -
15.06.2018 02:00:00 17,9 16,3 5 3 WNW 1006,1 -
15.06.2018 01:00:00 18,0 16,3 5 3 W 1006,3 -
15.06.2018 00:00:00 18,4 16,8 8 4 W 1006,7 -
14.06.2018 23:00:00 18,4 16,7 5 3 W 1006,5 -
14.06.2018 22:00:00 18,8 17,1 8 4 W 1006,4 -
14.06.2018 21:00:00 19,2 16,5 5 3 WSW 1005,9 -
14.06.2018 20:00:00 20,0 17,5 15 8 WNW 1005,5 -
14.06.2018 19:00:00 20,5 17,3 15 8 NW 1005,7 -
14.06.2018 18:00:00 20,6 18,5 21 11 NW 1005,5 -
14.06.2018 17:00:00 21,3 17,4 21 11 NW 1005,3 -
14.06.2018 16:00:00 21,1 18,0 15 8 WNW 1005,4 -
14.06.2018 15:00:00 21,1 18,2 15 8 NW 1005,6 -
14.06.2018 14:00:00 20,4 18,1 8 4 NW 1006,1 -
14.06.2018 13:00:00 20,3 17,4 15 8 W 1006,1 -
14.06.2018 12:00:00 20,5 18,6 9 5 W 1006,3 -
14.06.2018 11:00:00 19,7 18,1 5 3 W 1006,2 -
14.06.2018 10:00:00 20,8 17,9 15 8 W 1005,9 -
14.06.2018 09:00:00 20,1 17,6 15 8 W 1005,9 -
14.06.2018 08:00:00 19,8 15,8 26 14 W 1005,8 -
14.06.2018 07:00:00 19,8 18,1 9 5 E 1005,8 -
14.06.2018 06:00:00 18,9 17,3 15 8 W 1006,1 -
14.06.2018 05:00:00 19,3 18,1 15 8 WSW 1005,7 -
14.06.2018 04:00:00 19,3 18,1 8 4 WSW 1006,2 -
14.06.2018 03:00:00 19,8 18,2 15 8 W 1006,5 -
14.06.2018 02:00:00 20,0 18,4 13 7 WNW 1006,8 0,0
14.06.2018 01:00:00 20,3 18,5 15 8 W 1007,1 -
14.06.2018 00:00:00 20,3 18,7 18 10 WNW 1007,7 -
13.06.2018 23:00:00 20,3 18,5 21 11 W 1007,9 -
13.06.2018 22:00:00 20,3 18,5 13 7 S 1007,8 -
13.06.2018 21:00:00 20,6 18,8 18 10 WNW 1007,8 -
13.06.2018 20:00:00 21,0 19,2 18 10 WNW 1007,9 0,0
13.06.2018 19:00:00 21,6 19,6 26 14 WNW 1007,6 -
13.06.2018 18:00:00 22,1 19,6 24 13 NW 1007,5 -
13.06.2018 17:00:00 22,5 19,4 24 13 WNW 1008,4 -
13.06.2018 16:00:00 22,5 20,2 26 14 NW 1008,4 -
13.06.2018 15:00:00 23,1 20,6 26 14 NW 1008,6 -
13.06.2018 14:00:00 22,6 19,7 26 14 NW 1009,0 0,0
13.06.2018 13:00:00 23,6 21,1 22 12 NW 1009,3 -
13.06.2018 12:00:00 23,5 21,7 22 12 NW 1009,1 -
13.06.2018 11:00:00 22,0 20,2 16 9 WNW 1009,6 -
13.06.2018 10:00:00 21,7 19,4 11 6 WNW 1010,3 -
13.06.2018 09:00:00 22,2 20,4 15 8 WNW 1010,1 -
13.06.2018 08:00:00 21,9 20,8 21 11 NW 1010,1 0,0
13.06.2018 07:00:00 20,9 20,2 8 4 WNW 1009,8 -
13.06.2018 06:00:00 20,4 19,7 9 5 WNW 1009,9 -
13.06.2018 05:00:00 20,3 19,6 5 3 W 1009,9 -
13.06.2018 04:00:00 20,4 19,7 11 6 WSW 1010,1 -
13.06.2018 03:00:00 20,5 19,8 8 4 W 1010,5 -
13.06.2018 02:00:00 20,1 19,0 5 3 W 1010,7 0,0
13.06.2018 01:00:00 20,9 20,2 8 4 WNW 1011,2 -

tt = temperature
td = dewpoint
ff = wind speed
dd = wind direction
ppp = reduced air pressure
rr = precipitation

Next stations